Time;durP1;ratioP1;P1;durP2;ratioP2;P2;SDS_P1;SDS_P2;PMS_P1;PMS_P2;Temp;Humidity;BMP_temperature;BMP_pressure;BME280_temperature;BME280_humidity;BME280_pressure;Samples;Min_cycle;Max_cycle;Signal;HPM_P1;HPM_P2
2023/09/29 00:00:25;;;;;;;9.07;2.88;;;;;;;12.93;100.00;99007.88;5013151;28;20026;-72
2023/09/29 00:02:53;;;;;;;6.25;2.80;;;;;;;13.04;100.00;99032.72;5014580;28;20400;-72
2023/09/29 00:05:19;;;;;;;4.55;2.83;;;;;;;13.06;100.00;99065.94;5014382;28;20474;-72
2023/09/29 00:07:44;;;;;;;4.28;2.95;;;;;;;12.88;100.00;99044.88;4993965;28;20026;-73
2023/09/29 00:10:14;;;;;;;4.28;2.97;;;;;;;12.90;100.00;99064.50;5007935;28;20021;-72
2023/09/29 00:12:41;;;;;;;5.78;3.20;;;;;;;12.75;100.00;99048.44;4997556;28;20046;-72
2023/09/29 00:15:07;;;;;;;5.85;2.88;;;;;;;12.66;100.00;99036.16;4996996;28;20034;-72
2023/09/29 00:17:33;;;;;;;6.38;3.58;;;;;;;12.53;100.00;99025.31;4985761;28;20486;-72
2023/09/29 00:19:59;;;;;;;8.55;3.50;;;;;;;12.56;100.00;99014.03;5016445;28;20032;-73
2023/09/29 00:22:24;;;;;;;7.95;3.05;;;;;;;12.84;100.00;99062.66;5008778;28;20021;-72
2023/09/29 00:24:50;;;;;;;4.82;3.03;;;;;;;12.78;100.00;99050.72;5023920;28;20061;-73
2023/09/29 00:27:15;;;;;;;5.05;2.72;;;;;;;12.81;100.00;99046.75;4994196;28;20040;-72
2023/09/29 00:29:40;;;;;;;6.68;3.75;;;;;;;12.84;100.00;99058.03;5007155;28;20374;-72
2023/09/29 00:32:06;;;;;;;6.55;3.70;;;;;;;12.84;100.00;99047.19;4997777;28;20030;-72
2023/09/29 00:34:31;;;;;;;5.00;3.25;;;;;;;12.83;100.00;99053.66;5009490;28;20659;-72
2023/09/29 00:36:57;;;;;;;5.32;3.40;;;;;;;12.68;100.00;99031.31;4995875;28;20057;-73
2023/09/29 00:39:22;;;;;;;6.93;3.45;;;;;;;12.88;100.00;99061.16;4995962;28;20136;-73
2023/09/29 00:41:49;;;;;;;7.63;3.20;;;;;;;12.94;100.00;99063.03;5010805;28;20022;-72
2023/09/29 00:44:15;;;;;;;11.55;3.70;;;;;;;12.87;100.00;99040.50;5011902;28;20024;-73
2023/09/29 00:46:42;;;;;;;9.52;3.70;;;;;;;13.02;100.00;99065.53;5009943;28;20052;-73
2023/09/29 00:49:08;;;;;;;6.50;3.75;;;;;;;12.80;100.00;99035.06;5015050;28;20034;-72
2023/09/29 00:51:34;;;;;;;6.50;3.35;;;;;;;12.82;100.00;99043.84;5014472;28;20449;-72
2023/09/29 00:54:02;;;;;;;5.22;3.10;;;;;;;12.88;100.00;99072.84;5012266;28;20026;-72
2023/09/29 00:56:28;;;;;;;5.35;2.42;;;;;;;12.78;100.00;99041.75;5014406;28;20029;-72
2023/09/29 00:58:55;;;;;;;4.63;2.95;;;;;;;12.64;100.00;99030.91;4996120;28;20065;-72
2023/09/29 01:01:22;;;;;;;9.02;2.90;;;;;;;12.69;100.00;99038.44;5011147;28;20543;-72
2023/09/29 01:03:50;;;;;;;4.40;3.00;;;;;;;12.79;100.00;99051.59;5031619;23;20037;-58
2023/09/29 01:06:16;;;;;;;6.75;3.20;;;;;;;12.82;100.00;99053.88;5022360;28;20164;-57
2023/09/29 01:08:44;;;;;;;5.07;3.05;;;;;;;12.77;100.00;99046.34;5025947;28;20064;-60
2023/09/29 01:11:10;;;;;;;6.13;3.00;;;;;;;12.76;100.00;99049.28;5020700;28;20057;-60
2023/09/29 01:13:40;;;;;;;4.60;2.85;;;;;;;12.69;100.00;99052.00;5023488;28;20071;-57
2023/09/29 01:16:06;;;;;;;5.78;3.05;;;;;;;12.62;100.00;99043.03;5021371;28;20041;-57
2023/09/29 01:18:33;;;;;;;6.68;2.88;;;;;;;12.59;100.00;99049.72;5029369;28;20022;-60
2023/09/29 01:20:59;;;;;;;5.03;2.90;;;;;;;12.67;100.00;99056.81;5019632;28;20406;-60
2023/09/29 01:23:30;;;;;;;6.72;2.88;;;;;;;12.74;100.00;99052.22;5017757;28;20033;-60
2023/09/29 01:25:56;;;;;;;8.48;3.13;;;;;;;12.82;100.00;99046.56;5020173;28;20432;-57
2023/09/29 01:28:21;;;;;;;5.53;3.33;;;;;;;12.75;100.00;99042.19;5011391;28;20022;-58
2023/09/29 01:30:53;;;;;;;7.63;2.80;;;;;;;12.69;100.00;99038.44;5022252;28;20048;-57
2023/09/29 01:33:18;;;;;;;6.50;3.03;;;;;;;12.59;100.00;99043.47;5023585;28;20446;-57
2023/09/29 01:35:43;;;;;;;4.85;3.08;;;;;;;12.50;100.00;99053.72;5015977;28;20036;-58
2023/09/29 01:38:09;;;;;;;4.93;3.05;;;;;;;12.49;100.00;99052.84;5018802;28;20032;-60
2023/09/29 01:40:34;;;;;;;5.20;3.05;;;;;;;12.49;100.00;99054.72;5026421;28;20116;-60
2023/09/29 01:43:00;;;;;;;5.03;2.97;;;;;;;12.47;100.00;99060.38;5023923;28;20468;-60
2023/09/29 01:45:26;;;;;;;5.43;3.17;;;;;;;12.40;100.00;99051.41;5017764;28;20025;-61
2023/09/29 01:47:51;;;;;;;6.32;2.90;;;;;;;12.38;100.00;99053.50;5024865;28;20021;-60
2023/09/29 01:50:20;;;;;;;7.35;3.05;;;;;;;12.38;100.00;99058.09;5026438;28;20025;-60
2023/09/29 01:52:47;;;;;;;4.20;3.20;;;;;;;12.43;100.00;99061.84;5022058;28;20060;-60
2023/09/29 01:55:24;;;;;;;7.75;2.97;;;;;;;12.42;100.00;99060.19;5022929;28;20269;-57
2023/09/29 01:57:53;;;;;;;5.78;3.33;;;;;;;12.56;100.00;99060.16;5011756;28;20026;-60
2023/09/29 02:00:23;;;;;;;6.75;3.38;;;;;;;12.53;100.00;99058.72;5019202;28;20026;-58
2023/09/29 02:02:50;;;;;;;5.85;3.20;;;;;;;12.58;100.00;99049.94;5024008;28;20496;-58
2023/09/29 02:05:16;;;;;;;6.10;3.15;;;;;;;12.65;100.00;99050.75;5017056;28;20433;-58
2023/09/29 02:07:42;;;;;;;5.32;2.88;;;;;;;12.26;100.00;98996.31;5027569;28;20087;-58
2023/09/29 02:10:08;;;;;;;7.13;3.65;;;;;;;12.54;100.00;99044.09;5014768;28;20030;-58
2023/09/29 02:12:38;;;;;;;6.72;3.40;;;;;;;12.55;100.00;99044.91;5023223;28;20029;-58
2023/09/29 02:15:06;;;;;;;8.00;3.22;;;;;;;12.52;100.00;99040.75;5019162;28;20034;-58
2023/09/29 02:17:35;;;;;;;5.68;3.33;;;;;;;12.48;100.00;99026.75;5022667;28;20459;-59
2023/09/29 02:20:11;;;;;;;6.10;2.80;;;;;;;12.48;100.00;99037.63;5024127;28;20052;-58
2023/09/29 02:22:37;;;;;;;5.90;3.47;;;;;;;12.53;100.00;99037.00;5013244;28;20466;-58
2023/09/29 02:25:03;;;;;;;5.70;3.50;;;;;;;12.59;100.00;99032.59;5014942;28;20030;-58
2023/09/29 02:27:29;;;;;;;4.97;3.03;;;;;;;12.52;100.00;99048.06;5013875;28;20025;-58
2023/09/29 02:29:54;;;;;;;8.38;3.05;;;;;;;12.41;100.00;99034.06;5026309;28;20025;-58
2023/09/29 02:32:19;;;;;;;4.85;2.92;;;;;;;12.37;100.00;99045.56;5028022;28;20487;-58
2023/09/29 02:34:45;;;;;;;7.78;3.30;;;;;;;12.37;100.00;99040.97;5026824;28;20481;-58
2023/09/29 02:37:10;;;;;;;7.00;3.30;;;;;;;12.33;100.00;99045.13;5015187;28;20032;-58
2023/09/29 02:39:35;;;;;;;5.18;3.40;;;;;;;12.43;100.00;99040.13;5014982;28;20030;-59
2023/09/29 02:42:01;;;;;;;12.50;3.88;;;;;;;12.59;100.00;99038.88;5026478;28;20056;-58
2023/09/29 02:44:30;;;;;;;7.28;2.92;;;;;;;12.74;100.00;99035.94;5015363;28;20538;-58
2023/09/29 02:46:58;;;;;;;7.03;2.85;;;;;;;12.88;100.00;99037.56;5024237;28;20057;-58
2023/09/29 02:49:23;;;;;;;6.20;3.17;;;;;;;13.01;100.00;99031.25;5014678;28;20032;-58
2023/09/29 02:51:48;;;;;;;4.63;2.83;;;;;;;13.08;100.00;99036.69;5028766;28;20026;-58
2023/09/29 02:54:14;;;;;;;4.78;2.80;;;;;;;13.15;100.00;99032.03;5011516;28;20474;-58
2023/09/29 02:56:40;;;;;;;4.47;2.75;;;;;;;13.23;100.00;99026.38;5021717;28;20022;-58
2023/09/29 02:59:06;;;;;;;4.82;2.60;;;;;;;13.23;100.00;99023.69;5033218;28;20087;-58
2023/09/29 03:01:32;;;;;;;4.53;2.65;;;;;;;13.31;100.00;99017.19;5026124;28;20026;-58
2023/09/29 03:03:58;;;;;;;4.07;2.40;;;;;;;13.33;100.00;99015.91;5027566;28;20091;-58
2023/09/29 03:06:24;;;;;;;5.82;2.80;;;;;;;13.31;100.00;99022.63;5027235;28;20026;-58
2023/09/29 03:08:54;;;;;;;3.60;2.33;;;;;;;13.29;100.00;99017.41;5022989;28;20025;-58
2023/09/29 03:11:20;;;;;;;4.25;2.55;;;;;;;13.25;100.00;99018.84;5029080;28;20029;-58
2023/09/29 03:13:46;;;;;;;6.55;2.80;;;;;;;13.27;100.00;99027.66;5017699;28;20156;-58
2023/09/29 03:16:12;;;;;;;5.97;2.50;;;;;;;13.33;100.00;99017.78;5014563;28;20124;-58
2023/09/29 03:18:39;;;;;;;3.97;2.47;;;;;;;13.33;100.00;99015.91;5019367;28;20461;-58
2023/09/29 03:21:04;;;;;;;5.13;2.90;;;;;;;13.31;100.00;99015.31;5020919;28;20373;-60
2023/09/29 03:23:36;;;;;;;3.60;2.22;;;;;;;13.36;100.00;99012.78;5033095;28;20175;-58
2023/09/29 03:26:03;;;;;;;4.13;2.38;;;;;;;13.47;100.00;99008.53;5023878;28;20017;-58
2023/09/29 03:28:29;;;;;;;3.67;2.53;;;;;;;13.47;100.00;99018.59;5027269;28;20037;-58
2023/09/29 03:30:55;;;;;;;7.72;2.20;;;;;;;13.44;100.00;99016.28;5023168;28;20032;-58
2023/09/29 03:33:20;;;;;;;6.30;2.78;;;;;;;13.46;100.00;99012.28;5024627;28;20025;-58
2023/09/29 03:35:47;;;;;;;5.50;2.42;;;;;;;13.42;100.00;99023.84;5027442;28;20063;-58
2023/09/29 03:38:14;;;;;;;7.30;2.80;;;;;;;13.37;100.00;99014.44;5005733;28;20021;-58
2023/09/29 03:40:44;;;;;;;5.45;2.60;;;;;;;13.39;100.00;99025.09;5027977;28;20111;-60
2023/09/29 03:43:11;;;;;;;4.72;2.33;;;;;;;13.38;100.00;99010.66;5021610;28;20025;-58
2023/09/29 03:45:38;;;;;;;3.75;2.60;;;;;;;13.33;100.00;99017.78;5023330;28;20029;-58
2023/09/29 03:48:05;;;;;;;6.55;2.63;;;;;;;13.21;100.00;99028.47;5023457;28;20128;-58
2023/09/29 03:50:32;;;;;;;3.97;2.05;;;;;;;13.13;100.00;99026.00;5031004;28;20039;-58
2023/09/29 03:52:59;;;;;;;4.93;2.75;;;;;;;13.01;100.00;99025.00;5027769;28;20055;-58
2023/09/29 03:55:24;;;;;;;5.93;2.63;;;;;;;12.86;100.00;99028.81;5017324;28;20028;-58
2023/09/29 03:57:50;;;;;;;3.90;2.47;;;;;;;12.93;100.00;99040.47;5023514;28;20026;-58
2023/09/29 04:00:18;;;;;;;5.18;2.88;;;;;;;12.85;100.00;99042.59;5016258;28;20595;-59
2023/09/29 04:02:44;;;;;;;6.40;2.45;;;;;;;12.75;100.00;99047.63;5024917;28;20061;-59
2023/09/29 04:05:10;;;;;;;4.60;2.58;;;;;;;12.74;100.00;99052.22;5012538;28;20025;-59
2023/09/29 04:07:39;;;;;;;4.60;2.70;;;;;;;12.71;100.00;99058.91;5028519;28;20434;-58
2023/09/29 04:10:05;;;;;;;4.45;2.60;;;;;;;12.73;100.00;99061.38;5011659;28;20033;-58
2023/09/29 04:12:31;;;;;;;5.50;2.75;;;;;;;12.79;100.00;99055.13;5016878;28;20029;-59
2023/09/29 04:14:56;;;;;;;7.35;3.30;;;;;;;12.93;100.00;99045.91;5022812;28;20400;-59
2023/09/29 04:17:21;;;;;;;10.57;2.90;;;;;;;12.96;100.00;99038.38;5025146;28;20061;-58
2023/09/29 04:19:47;;;;;;;5.07;2.97;;;;;;;12.90;100.00;99031.91;5013334;28;20053;-59
2023/09/29 04:22:12;;;;;;;4.55;3.17;;;;;;;12.92;100.00;99044.25;5029948;28;20025;-59
2023/09/29 04:24:39;;;;;;;9.85;3.42;;;;;;;12.99;100.00;99062.38;5026923;28;20029;-59
2023/09/29 04:27:05;;;;;;;6.88;3.00;;;;;;;13.02;100.00;99067.41;5027987;28;20025;-61
2023/09/29 04:29:30;;;;;;;7.05;3.13;;;;;;;12.98;100.00;99066.16;5025182;28;20035;-59
2023/09/29 04:31:56;;;;;;;5.55;2.88;;;;;;;12.98;100.00;99066.16;5023224;28;20033;-60
2023/09/29 04:34:23;;;;;;;7.03;3.08;;;;;;;13.11;100.00;99080.53;5021222;28;20458;-60
2023/09/29 04:36:48;;;;;;;7.38;3.28;;;;;;;13.20;100.00;99077.59;5023761;28;20121;-60
2023/09/29 04:39:16;;;;;;;8.43;3.00;;;;;;;13.28;100.00;99075.53;5015125;28;20108;-60
2023/09/29 04:41:41;;;;;;;4.95;2.78;;;;;;;13.31;100.00;99072.38;5028058;28;20029;-60
2023/09/29 04:44:07;;;;;;;5.25;3.00;;;;;;;13.26;100.00;99074.03;5022179;28;20040;-60
2023/09/29 04:46:34;;;;;;;6.28;3.15;;;;;;;13.24;100.00;99065.25;5027176;28;20029;-60
2023/09/29 04:49:03;;;;;;;10.75;4.22;;;;;;;13.25;100.00;99058.75;5014212;28;20443;-60
2023/09/29 04:51:32;;;;;;;6.03;3.25;;;;;;;13.34;100.00;99062.97;5015404;28;20065;-60
2023/09/29 04:53:58;;;;;;;8.32;3.50;;;;;;;13.36;100.00;99066.28;5026104;28;20028;-60
2023/09/29 04:56:23;;;;;;;6.38;3.15;;;;;;;13.36;100.00;99080.72;5025194;28;20037;-59
2023/09/29 04:58:48;;;;;;;8.27;2.78;;;;;;;13.46;100.00;99082.13;5024321;28;20061;-60
2023/09/29 05:01:20;;;;;;;6.13;3.20;;;;;;;13.42;100.00;99056.44;5013593;28;20018;-60
2023/09/29 05:03:53;;;;;;;4.57;2.92;;;;;;;13.43;100.00;99058.09;5015049;28;20490;-60
2023/09/29 05:06:18;;;;;;;5.72;3.20;;;;;;;13.43;100.00;99055.38;5017471;28;20030;-60
2023/09/29 05:08:44;;;;;;;5.40;2.85;;;;;;;13.52;100.00;99059.53;5011884;28;20029;-60
2023/09/29 05:11:25;;;;;;;6.03;3.15;;;;;;;13.62;100.00;99065.31;5012942;28;20022;-60
2023/09/29 05:13:52;;;;;;;13.63;3.38;;;;;;;13.71;100.00;99061.31;5016876;28;20037;-60
2023/09/29 05:16:18;;;;;;;7.38;3.05;;;;;;;13.75;100.00;99062.56;5026272;28;20025;-60
2023/09/29 05:18:45;;;;;;;3.78;2.90;;;;;;;13.84;100.00;99057.69;5024718;28;20024;-60
2023/09/29 05:21:11;;;;;;;5.00;2.80;;;;;;;13.96;100.00;99060.53;5027886;28;20492;-60
2023/09/29 05:23:37;;;;;;;5.85;3.05;;;;;;;13.97;100.00;99054.88;5014763;28;20021;-59
2023/09/29 05:26:05;;;;;;;4.85;2.88;;;;;;;14.00;100.00;99061.78;5020980;28;20017;-60
2023/09/29 05:28:32;;;;;;;6.57;3.55;;;;;;;14.09;100.00;99060.44;5019045;28;20034;-60
2023/09/29 05:30:58;;;;;;;6.03;2.70;;;;;;;14.19;100.00;99060.78;5019933;28;20049;-60
2023/09/29 05:33:23;;;;;;;6.10;3.05;;;;;;;14.28;100.00;99060.53;5038600;28;20064;-60
2023/09/29 05:35:49;;;;;;;4.90;3.10;;;;;;;14.38;100.00;99078.06;5022390;28;20038;-60
2023/09/29 05:38:15;;;;;;;4.53;2.53;;;;;;;14.35;100.00;99074.91;5024798;28;20034;-60
2023/09/29 05:40:41;;;;;;;7.85;2.80;;;;;;;14.24;100.00;99076.47;5024240;28;20033;-60
2023/09/29 05:43:12;;;;;;;3.72;2.70;;;;;;;14.24;100.00;99074.56;5025828;28;20034;-60
2023/09/29 05:45:38;;;;;;;6.85;2.38;;;;;;;14.34;100.00;99073.25;5013122;28;20787;-60
2023/09/29 05:48:04;;;;;;;7.28;2.95;;;;;;;14.56;100.00;99071.00;5018672;28;20033;-60
2023/09/29 05:50:29;;;;;;;4.03;2.47;;;;;;;14.79;100.00;99071.22;5020931;28;20131;-60
2023/09/29 05:52:56;;;;;;;5.60;2.53;;;;;;;15.05;100.00;99063.84;5013020;28;20029;-60
2023/09/29 05:55:22;;;;;;;5.18;2.33;;;;;;;15.21;100.00;99070.59;5022658;28;20034;-60
2023/09/29 05:57:48;;;;;;;4.20;2.25;;;;;;;15.32;100.00;99069.81;5017263;28;20130;-60
2023/09/29 06:00:14;;;;;;;4.80;2.15;;;;;;;15.52;100.00;99070.41;5015204;28;20034;-60
2023/09/29 06:02:40;;;;;;;5.45;2.90;;;;;;;16.52;100.00;99062.72;5020111;28;20029;-60
2023/09/29 06:05:07;;;;;;;9.85;3.28;;;;;;;17.37;100.00;99059.50;5015173;28;20049;-60
2023/09/29 06:07:32;;;;;;;9.35;3.33;;;;;;;17.36;100.00;99052.34;5031690;28;20385;-60
2023/09/29 06:09:58;;;;;;;7.97;3.72;;;;;;;16.66;100.00;99058.66;5021183;28;20025;-60
2023/09/29 06:12:23;;;;;;;10.15;3.17;;;;;;;16.27;100.00;99066.47;5031405;28;20036;-60
2023/09/29 06:14:49;;;;;;;12.30;3.67;;;;;;;16.00;100.00;99066.03;5019275;28;20033;-60
2023/09/29 06:17:14;;;;;;;5.65;3.22;;;;;;;15.95;100.00;99069.44;5021673;28;20401;-60
2023/09/29 06:19:41;;;;;;;8.23;3.35;;;;;;;15.97;100.00;99066.50;5026427;28;20033;-59
2023/09/29 06:22:07;;;;;;;9.20;3.13;;;;;;;15.96;100.00;99070.31;5027876;28;20025;-60
2023/09/29 06:24:33;;;;;;;5.88;3.08;;;;;;;16.34;100.00;99077.28;5023563;28;20366;-60
2023/09/29 06:26:58;;;;;;;8.88;2.60;;;;;;;16.58;100.00;99065.34;5024388;28;20432;-60
2023/09/29 06:29:25;;;;;;;7.95;2.83;;;;;;;16.77;100.00;99067.97;5024043;28;20053;-60
2023/09/29 06:31:50;;;;;;;7.72;3.13;;;;;;;16.93;100.00;99082.84;5022040;28;20110;-60
2023/09/29 06:34:16;;;;;;;5.43;2.92;;;;;;;16.95;100.00;99080.69;5019528;28;20037;-60
2023/09/29 06:36:42;;;;;;;8.27;2.40;;;;;;;16.81;100.00;99078.19;5029154;28;20034;-60
2023/09/29 06:39:08;;;;;;;6.35;3.08;;;;;;;16.59;100.00;99080.66;5017338;28;20018;-60
2023/09/29 06:41:34;;;;;;;6.47;2.80;;;;;;;16.47;100.00;99079.78;5024227;28;20033;-60
2023/09/29 06:43:59;;;;;;;5.32;2.80;;;;;;;16.38;100.00;99084.78;5025587;28;20033;-60
2023/09/29 06:46:25;;;;;;;6.03;2.88;;;;;;;16.38;100.00;99076.59;5021529;28;20032;-60
2023/09/29 06:48:52;;;;;;;5.20;2.60;;;;;;;16.34;100.00;99083.56;5032087;28;20064;-60
2023/09/29 06:51:18;;;;;;;6.78;2.95;;;;;;;16.43;100.00;99095.00;5018594;28;20026;-60
2023/09/29 06:53:43;;;;;;;8.25;3.08;;;;;;;16.51;100.00;99102.03;5024014;28;20029;-60
2023/09/29 06:56:08;;;;;;;5.93;2.75;;;;;;;16.75;100.00;99084.59;5019683;28;20032;-60
2023/09/29 06:58:34;;;;;;;13.23;3.20;;;;;;;16.93;100.00;99102.00;5022473;28;20021;-60
2023/09/29 07:01:00;;;;;;;7.80;3.05;;;;;;;17.27;100.00;99098.41;5024341;28;20025;-59
2023/09/29 07:03:29;;;;;;;5.68;2.90;;;;;;;17.48;100.00;99104.31;5025634;28;20112;-60
2023/09/29 07:05:55;;;;;;;6.75;2.50;;;;;;;17.75;100.00;99089.00;5048655;22;20053;-61
2023/09/29 07:08:21;;;;;;;8.18;2.60;;;;;;;17.78;100.00;99076.72;5034613;28;20017;-62
2023/09/29 07:10:46;;;;;;;5.63;2.88;;;;;;;18.16;100.00;99072.56;5037792;28;20121;-62
2023/09/29 07:13:12;;;;;;;6.22;2.70;;;;;;;18.48;100.00;99061.88;5041594;28;20033;-63
2023/09/29 07:15:37;;;;;;;5.32;2.72;;;;;;;18.66;100.00;99062.72;5035244;28;20112;-63
2023/09/29 07:18:03;;;;;;;7.40;3.30;;;;;;;18.83;100.00;99064.38;5035775;28;20527;-63
2023/09/29 07:20:30;;;;;;;6.43;3.00;;;;;;;19.08;100.00;99063.13;5046905;28;20041;-64
2023/09/29 07:22:56;;;;;;;6.43;2.40;;;;;;;19.72;100.00;99070.00;5043335;28;20029;-65
2023/09/29 07:25:23;;;;;;;6.13;3.00;;;;;;;20.35;100.00;99055.53;5048625;28;20113;-63
2023/09/29 07:27:48;;;;;;;10.00;2.60;;;;;;;20.87;100.00;99065.06;5048027;28;20029;-67
2023/09/29 07:30:14;;;;;;;5.97;2.60;;;;;;;21.09;100.00;99055.84;5038703;28;20041;-62
2023/09/29 07:32:43;;;;;;;6.07;2.70;;;;;;;21.05;100.00;99055.56;5036139;28;20049;-63
2023/09/29 07:35:09;;;;;;;9.98;2.90;;;;;;;20.65;100.00;99059.69;5039930;28;20026;-63
2023/09/29 07:37:34;;;;;;;5.43;2.85;;;;;;;21.09;100.00;99064.94;5034727;28;20075;-63
2023/09/29 07:40:00;;;;;;;8.48;2.90;;;;;;;20.97;100.00;99056.06;5038417;28;20039;-63
2023/09/29 07:42:33;;;;;;;6.88;2.55;;;;;;;21.21;100.00;99059.22;5043138;28;20032;-63
2023/09/29 07:44:59;;;;;;;12.98;3.35;;;;;;;20.98;100.00;99058.53;5033420;28;20025;-63
2023/09/29 07:47:24;;;;;;;7.88;3.00;;;;;;;21.14;100.00;99067.72;5034468;28;20027;-63
2023/09/29 07:49:50;;;;;;;7.90;2.85;;;;;;;21.21;100.00;99071.03;5043009;28;20036;-62
2023/09/29 07:52:15;;;;;;;6.93;2.72;;;;;;;21.65;100.00;99069.91;5034644;28;20457;-63
2023/09/29 07:54:40;;;;;;;5.10;2.38;;;;;;;21.65;100.00;99076.25;5039830;28;20052;-63
2023/09/29 07:57:07;;;;;;;6.25;2.50;;;;;;;22.31;100.00;99069.28;5042935;28;20179;-63
2023/09/29 07:59:32;;;;;;;5.32;2.58;;;;;;;22.99;100.00;99074.56;5042766;28;20481;-62
2023/09/29 08:01:58;;;;;;;9.45;2.47;;;;;;;23.50;100.00;99065.28;5043232;28;20040;-62
2023/09/29 08:04:25;;;;;;;5.10;2.35;;;;;;;23.90;100.00;99063.50;5040662;28;20037;-63
2023/09/29 08:06:50;;;;;;;5.00;2.17;;;;;;;24.63;100.00;99069.13;5036200;28;20029;-63
2023/09/29 08:09:16;;;;;;;5.28;2.92;;;;;;;25.19;100.00;99070.56;5040335;28;20044;-63
2023/09/29 08:11:42;;;;;;;5.57;2.83;;;;;;;26.59;87.61;99068.44;5039178;28;20469;-63
2023/09/29 08:14:08;;;;;;;4.35;2.60;;;;;;;28.99;77.15;99074.56;5032961;28;20144;-63
2023/09/29 08:16:34;;;;;;;4.28;2.45;;;;;;;30.25;64.23;99066.84;5043121;28;20103;-63
2023/09/29 08:19:00;;;;;;;5.35;2.00;;;;;;;30.94;61.18;99071.56;5020244;28;20029;-63
2023/09/29 08:21:25;;;;;;;10.25;2.38;;;;;;;33.46;56.25;99074.59;5040622;28;20033;-64
2023/09/29 08:23:51;;;;;;;4.90;2.10;;;;;;;31.90;55.45;99072.03;5040838;28;20021;-63
2023/09/29 08:26:16;;;;;;;4.00;2.28;;;;;;;32.40;55.39;99065.59;5031860;28;20025;-63
2023/09/29 08:28:43;;;;;;;3.58;2.08;;;;;;;33.94;51.67;99075.81;5034054;28;20116;-64
2023/09/29 08:31:15;;;;;;;5.18;2.35;;;;;;;34.97;49.14;99060.41;5040047;28;20079;-64
2023/09/29 08:33:41;;;;;;;3.78;2.10;;;;;;;32.01;52.12;99058.47;5047630;28;20052;-64
2023/09/29 08:36:07;;;;;;;8.85;2.08;;;;;;;28.51;58.80;99082.75;5039262;28;20036;-64
2023/09/29 08:38:33;;;;;;;4.30;2.20;;;;;;;27.45;64.41;99068.84;5034661;28;20025;-65
2023/09/29 08:41:01;;;;;;;6.85;2.60;;;;;;;26.72;67.67;99059.34;5037368;28;20032;-64
2023/09/29 08:43:28;;;;;;;4.95;2.55;;;;;;;29.52;63.30;99055.31;5041668;28;20021;-63
2023/09/29 08:45:58;;;;;;;5.30;2.17;;;;;;;31.40;56.60;99051.22;5046348;28;20112;-63
2023/09/29 08:48:25;;;;;;;4.65;2.55;;;;;;;29.82;58.50;99053.63;5053686;28;20025;-65
2023/09/29 08:50:55;;;;;;;4.50;2.25;;;;;;;30.92;57.01;99065.50;5044623;28;20465;-65
2023/09/29 08:53:24;;;;;;;4.13;2.40;;;;;;;33.12;52.92;99073.88;5031563;28;20029;-66
2023/09/29 08:55:52;;;;;;;4.35;2.17;;;;;;;33.86;49.69;99063.53;5041468;28;20476;-63
2023/09/29 08:58:18;;;;;;;6.40;2.50;;;;;;;33.88;49.29;99052.75;5044005;28;20032;-63
2023/09/29 09:00:44;;;;;;;4.68;2.58;;;;;;;35.29;47.43;99050.84;5040139;28;20040;-63
2023/09/29 09:03:09;;;;;;;4.47;2.33;;;;;;;35.33;46.72;99048.13;5048828;28;20031;-63
2023/09/29 09:05:34;;;;;;;5.65;2.28;;;;;;;36.56;45.17;99056.25;5048123;28;20093;-63
2023/09/29 09:08:01;;;;;;;5.32;2.40;;;;;;;37.29;43.37;99050.81;5036056;28;20032;-63
2023/09/29 09:10:34;;;;;;;4.93;2.10;;;;;;;36.35;44.21;99050.16;5035490;28;20056;-63
2023/09/29 09:13:01;;;;;;;6.55;2.50;;;;;;;37.57;42.51;99047.66;5050362;28;20035;-64
2023/09/29 09:15:27;;;;;;;3.72;2.10;;;;;;;37.57;42.55;99029.91;5063691;28;20443;-63
2023/09/29 09:17:54;;;;;;;3.75;2.00;;;;;;;37.52;42.58;99033.91;5030819;28;20035;-63
2023/09/29 09:20:20;;;;;;;5.35;2.53;;;;;;;36.35;43.36;99036.06;5031155;28;20416;-63
2023/09/29 09:23:02;;;;;;;3.65;2.30;;;;;;;36.65;43.55;99036.28;5031776;28;20019;-62
2023/09/29 09:25:37;;;;;;;7.68;2.42;;;;;;;37.58;42.72;99034.38;5034514;28;20064;-67
2023/09/29 09:28:03;;;;;;;5.40;3.00;;;;;;;38.02;42.15;99031.00;5030783;28;20029;-62
2023/09/29 09:30:35;;;;;;;5.88;2.53;;;;;;;37.68;42.20;99026.06;5044162;28;20526;-65
2023/09/29 09:33:02;;;;;;;3.33;2.13;;;;;;;34.54;45.61;99033.88;5038047;28;20131;-65
2023/09/29 09:35:28;;;;;;;8.20;2.60;;;;;;;31.65;50.39;99035.47;5035937;28;20030;-61
2023/09/29 09:37:55;;;;;;;3.97;2.30;;;;;;;30.50;54.04;99034.50;5038008;28;20037;-63
2023/09/29 09:40:26;;;;;;;4.07;2.30;;;;;;;29.61;55.97;99031.91;5040995;28;20049;-63
2023/09/29 09:43:02;;;;;;;6.20;2.67;;;;;;;29.53;59.37;99040.22;5034448;28;20025;-61
2023/09/29 09:45:39;;;;;;;9.55;2.38;;;;;;;30.86;55.59;99036.09;5029768;28;20025;-63
2023/09/29 09:48:06;;;;;;;10.05;2.83;;;;;;;31.10;55.45;99039.16;5036398;28;20472;-61
2023/09/29 09:50:36;;;;;;;5.20;2.97;;;;;;;30.21;56.78;99035.13;5033603;28;20171;-61
2023/09/29 09:53:03;;;;;;;4.03;2.30;;;;;;;29.62;57.33;99032.72;5029078;28;20480;-61
2023/09/29 09:55:37;;;;;;;5.47;2.30;;;;;;;29.52;59.25;99039.41;5043820;28;20469;-61
2023/09/29 09:58:16;;;;;;;8.48;2.30;;;;;;;30.07;58.79;99035.28;5041474;28;20025;-62
2023/09/29 10:00:45;;;;;;;4.28;1.98;;;;;;;32.72;53.28;99041.59;5034779;28;20044;-61
2023/09/29 10:03:12;;;;;;;;;;;;;;;34.58;49.94;99027.19;5036076;28;20066;-61
2023/09/29 10:05:41;;;;;;;3.50;2.10;;;;;;;37.85;44.88;99029.53;5034255;28;19920;-62
2023/09/29 10:08:07;;;;;;;4.50;2.67;;;;;;;37.63;43.38;99026.41;5041021;28;20030;-62
2023/09/29 10:10:40;;;;;;;4.88;2.20;;;;;;;38.80;41.44;99028.38;5030606;28;20405;-62
2023/09/29 10:13:11;;;;;;;8.63;2.40;;;;;;;38.95;40.62;99032.22;5030090;28;20025;-64
2023/09/29 10:15:40;;;;;;;4.10;2.08;;;;;;;39.15;40.16;99029.97;5038550;28;20333;-64
2023/09/29 10:18:21;;;;;;;4.75;2.53;;;;;;;38.05;40.91;99033.09;5044468;28;20163;-65
2023/09/29 10:20:54;;;;;;;5.65;2.10;;;;;;;37.61;41.29;99030.78;5033035;28;20445;-63
2023/09/29 10:23:20;;;;;;;5.25;2.53;;;;;;;37.46;41.48;99030.53;5032313;28;20052;-62
2023/09/29 10:25:59;;;;;;;7.65;2.30;;;;;;;37.50;41.61;99034.25;5038148;28;20075;-61
2023/09/29 10:28:31;;;;;;;4.97;2.63;;;;;;;37.91;41.29;99028.84;5036538;28;20025;-63
2023/09/29 10:31:09;;;;;;;4.32;2.22;;;;;;;38.52;41.30;99029.69;5037747;28;20170;-61
2023/09/29 10:33:53;;;;;;;3.40;2.10;;;;;;;37.87;41.28;99027.97;5035438;28;20440;-65
2023/09/29 10:36:29;;;;;;;5.22;2.30;;;;;;;38.35;41.89;99021.78;5041668;28;20454;-64
2023/09/29 10:38:58;;;;;;;4.47;2.30;;;;;;;38.64;41.11;99022.94;5038973;28;20064;-65
2023/09/29 10:41:25;;;;;;;5.97;2.50;;;;;;;38.89;40.75;99017.59;5049023;28;20027;-62
2023/09/29 10:43:58;;;;;;;4.20;2.03;;;;;;;40.01;39.27;99017.31;5036169;28;20022;-63
2023/09/29 10:46:25;;;;;;;6.40;2.35;;;;;;;39.45;39.22;99012.88;5030441;28;20025;-63
2023/09/29 10:48:55;;;;;;;4.78;2.15;;;;;;;38.64;39.85;99003.16;5035363;28;20039;-62
2023/09/29 10:51:21;;;;;;;5.50;2.30;;;;;;;37.32;40.91;99009.75;5033332;28;20139;-62
2023/09/29 10:53:47;;;;;;;3.63;1.95;;;;;;;36.74;42.08;99000.22;5046185;28;20018;-62
2023/09/29 10:56:20;;;;;;;4.30;2.08;;;;;;;35.40;43.70;99008.91;5039656;28;20040;-62
2023/09/29 10:58:46;;;;;;;5.32;2.17;;;;;;;33.71;47.02;99005.31;5046420;28;20045;-62
2023/09/29 11:01:17;;;;;;;5.55;2.40;;;;;;;32.77;48.58;99006.94;5033848;28;20052;-62
2023/09/29 11:03:43;;;;;;;4.35;2.15;;;;;;;34.03;47.18;99000.66;5047396;28;20021;-61
2023/09/29 11:06:16;;;;;;;5.63;2.17;;;;;;;36.25;45.03;98989.56;5039376;28;20017;-61
2023/09/29 11:08:45;;;;;;;3.42;2.20;;;;;;;38.25;41.86;98997.00;5040714;28;20495;-61
2023/09/29 11:11:11;;;;;;;6.72;2.17;;;;;;;39.91;39.57;98995.41;5038395;28;20124;-62
2023/09/29 11:13:39;;;;;;;6.95;2.20;;;;;;;40.24;38.90;98991.53;5048443;28;20368;-63
2023/09/29 11:16:15;;;;;;;4.30;2.00;;;;;;;40.43;38.47;98976.22;5032826;28;20086;-63
2023/09/29 11:18:41;;;;;;;3.60;1.70;;;;;;;40.62;38.04;98980.72;5043918;28;20025;-64
2023/09/29 11:21:10;;;;;;;5.47;2.00;;;;;;;41.65;36.96;98978.41;5041859;28;20154;-63
2023/09/29 11:23:44;;;;;;;5.70;2.10;;;;;;;42.12;36.23;98974.22;5035663;28;21174;-64
2023/09/29 11:26:11;;;;;;;3.47;1.83;;;;;;;43.37;35.48;98969.81;5032056;28;20436;-64